Forside
METAR-TAF:

METAR-TAF

Lufthavne :

Conakry, Guinea

Breddekreds: 09-34N, længdekreds: 013-37W, højde: 26 m

Aktuelle vejr

Denne rapport blev lavet for 46 minutter siden, kl. 02:00 UTC
Vind stille
Temperatur 25°C
Fugtighed 94%
Tryk 1012 hPa
Sigt: 3000 m
dis

METAR: GUCY 210200Z 00000KT 3000 BR NSC 25/24 Q1012 NOSIG

Tid: 02:46 (02:46 UTC)

Vejrudsigter

Denne rapport blev lavet for 3 timer og 46 minutter siden, kl. 23:00 UTC
Foreløbig gælder fra 21 på 00 UTC til 22 på 06 UTC
Vind 6 kt fra vest
Sigt: 5000 m
Nogle få skyer i en højde af 1500 ft
Spredte skyer i en højde af 11000 ft
tåge/dis
Midlertidig
fra 21 på 03 UTC til 21 på 09 UTC
Vind 2 kt fra varierende retninger
Sigt: 3000 m
Spredte skyer i en højde af 1500 ft
dis
Midlertidig
fra 21 på 15 UTC til 21 på 20 UTC
Brudte skyer i en højde af 11000 ft

TAF: GUCY 202300Z 2100/2206 26006KT 5000 HZ FEW015 SCT110 TEMPO 2103/2109 VRB02KT 3000 BR SCT015 TEMPO 2115/2120 BKN110

Vejrobservationer og prognoser fra mere end 4000 lufthavne (METAR og TAF).

De gule og røde prikker repræsenterer de meteorologiske stationer.

Flyt musen over at se navnet på stationen.

Så klik over at se vejr observationer og prognoser.

At skifte det kort: Klik på de grønne knapper med et sort kors for at zoome ind; på den grønne knap med en bindestreg for at zoome ud; eller på de grønne pile for tilstødende kort.


METAR-TAF: